Time;durP1;ratioP1;P1;durP2;ratioP2;P2;SDS_P1;SDS_P2;PMS_P1;PMS_P2;Temp;Humidity;BMP_temperature;BMP_pressure;BME280_temperature;BME280_humidity;BME280_pressure;Samples;Min_cycle;Max_cycle;Signal;HPM_P1;HPM_P2
2022/01/09 00:01:15;;;;;;;0.90;0.90;;;3.60;99.90;;;;;;5059789;28;20036;-91
2022/01/09 00:03:40;;;;;;;0.70;0.70;;;3.60;99.90;;;;;;5065081;28;20047;-91
2022/01/09 00:06:06;;;;;;;0.70;0.70;;;3.60;99.90;;;;;;5061143;28;20045;-92
2022/01/09 00:08:32;;;;;;;0.65;0.65;;;3.70;99.90;;;;;;5053920;28;20047;-91
2022/01/09 00:10:58;;;;;;;0.70;0.70;;;3.60;99.90;;;;;;5049098;28;20058;-90
2022/01/09 00:13:23;;;;;;;0.85;0.85;;;3.60;99.90;;;;;;5067723;28;20051;-90
2022/01/09 00:15:49;;;;;;;0.80;0.80;;;3.50;99.90;;;;;;5057056;28;20056;-87
2022/01/09 00:18:15;;;;;;;3.50;1.70;;;3.50;99.90;;;;;;5055858;28;20485;-89
2022/01/09 00:20:40;;;;;;;0.80;0.80;;;3.60;99.90;;;;;;5069731;28;20047;-87
2022/01/09 00:23:06;;;;;;;0.70;0.70;;;3.50;99.90;;;;;;5074441;28;20128;-87
2022/01/09 00:25:31;;;;;;;0.90;0.90;;;3.60;99.90;;;;;;5079882;28;20041;-87
2022/01/09 00:27:57;;;;;;;0.80;0.80;;;3.50;99.90;;;;;;5068140;28;20061;-87
2022/01/09 00:30:24;;;;;;;0.80;0.80;;;3.60;99.90;;;;;;5057868;28;20052;-86
2022/01/09 00:32:50;;;;;;;0.70;0.70;;;3.60;99.90;;;;;;5055464;28;20686;-87
2022/01/09 00:35:17;;;;;;;0.70;0.70;;;3.50;99.90;;;;;;5054290;28;20049;-87
2022/01/09 00:37:43;;;;;;;0.70;0.70;;;3.50;99.90;;;;;;5060219;28;20036;-86
2022/01/09 00:40:11;;;;;;;2.42;1.42;;;3.60;99.90;;;;;;5057566;28;20045;-87
2022/01/09 00:42:36;;;;;;;0.82;0.82;;;3.60;99.90;;;;;;5059796;28;20067;-87
2022/01/09 00:45:05;;;;;;;0.77;0.77;;;3.60;99.90;;;;;;5071566;28;20045;-86
2022/01/09 00:47:31;;;;;;;0.63;0.63;;;3.60;99.90;;;;;;5078823;28;20054;-87
2022/01/09 00:49:57;;;;;;;0.70;0.70;;;3.50;99.90;;;;;;5076946;28;20060;-87
2022/01/09 00:52:22;;;;;;;0.90;0.90;;;3.50;99.90;;;;;;5064446;28;20120;-87
2022/01/09 00:54:48;;;;;;;0.70;0.70;;;3.60;99.90;;;;;;5061951;28;20107;-87
2022/01/09 00:57:13;;;;;;;0.70;0.70;;;3.60;99.90;;;;;;5064577;28;20373;-87
2022/01/09 00:59:39;;;;;;;1.23;1.15;;;3.60;99.90;;;;;;5059056;28;20045;-87
2022/01/09 01:02:05;;;;;;;1.00;1.00;;;3.50;99.90;;;;;;5081077;28;20039;-87
2022/01/09 01:04:30;;;;;;;0.70;0.70;;;3.60;99.90;;;;;;5056137;28;20092;-86
2022/01/09 01:06:56;;;;;;;0.70;0.70;;;3.60;99.90;;;;;;5071184;28;20453;-87
2022/01/09 01:09:24;;;;;;;0.70;0.70;;;3.60;99.90;;;;;;5057416;28;20130;-87
2022/01/09 01:11:49;;;;;;;0.93;0.93;;;3.60;99.90;;;;;;5054157;28;20060;-87
2022/01/09 01:14:15;;;;;;;0.73;0.73;;;3.60;99.90;;;;;;5077507;28;20119;-86
2022/01/09 01:16:41;;;;;;;0.75;0.75;;;3.60;99.90;;;;;;5066455;28;20036;-86
2022/01/09 01:19:06;;;;;;;0.80;0.80;;;3.60;99.90;;;;;;5088459;28;20036;-86
2022/01/09 01:21:35;;;;;;;0.77;0.77;;;3.60;99.90;;;;;;5073624;28;20033;-86
2022/01/09 01:24:01;;;;;;;0.75;0.75;;;3.60;99.90;;;;;;5087110;28;20048;-86
2022/01/09 01:26:26;;;;;;;0.80;0.80;;;3.60;99.90;;;;;;5060312;28;20048;-86
2022/01/09 01:28:52;;;;;;;0.65;0.65;;;3.60;99.90;;;;;;5084748;28;20127;-86
2022/01/09 01:31:17;;;;;;;0.70;0.70;;;3.60;99.90;;;;;;5066279;28;20039;-87
2022/01/09 01:33:43;;;;;;;0.80;0.80;;;3.60;99.90;;;;;;5074017;28;20041;-86
2022/01/09 01:36:09;;;;;;;0.90;0.90;;;3.60;99.90;;;;;;5073570;28;20075;-87
2022/01/09 01:38:34;;;;;;;0.70;0.70;;;3.60;99.90;;;;;;5049027;28;20044;-87
2022/01/09 01:41:00;;;;;;;0.70;0.70;;;3.60;99.90;;;;;;5059965;28;20036;-86
2022/01/09 01:43:26;;;;;;;0.70;0.70;;;3.60;99.90;;;;;;5059903;28;20111;-87
2022/01/09 01:45:52;;;;;;;0.90;0.90;;;3.60;99.90;;;;;;5080719;28;20041;-87
2022/01/09 01:48:18;;;;;;;0.70;0.70;;;3.60;99.90;;;;;;5079065;28;20066;-87
2022/01/09 01:50:46;;;;;;;1.02;0.98;;;3.70;99.90;;;;;;5073926;28;20040;-86
2022/01/09 01:53:17;;;;;;;0.90;0.90;;;3.70;99.90;;;;;;5081972;28;20044;-86
2022/01/09 01:55:44;;;;;;;0.70;0.70;;;3.60;99.90;;;;;;5052720;28;20048;-86
2022/01/09 01:58:11;;;;;;;0.70;0.70;;;3.70;99.90;;;;;;5058956;28;20064;-86
2022/01/09 02:00:41;;;;;;;0.63;0.63;;;3.60;99.90;;;;;;5079801;28;20036;-86
2022/01/09 02:03:09;;;;;;;0.77;0.77;;;3.60;99.90;;;;;;5067814;28;20037;-86
2022/01/09 02:05:34;;;;;;;0.70;0.70;;;3.70;99.90;;;;;;5073524;28;20365;-86
2022/01/09 02:08:02;;;;;;;0.90;0.90;;;3.60;99.90;;;;;;5060455;28;20041;-87
2022/01/09 02:10:28;;;;;;;0.80;0.80;;;3.60;99.90;;;;;;5070798;28;20044;-87
2022/01/09 02:12:56;;;;;;;0.90;0.90;;;3.70;99.90;;;;;;5063294;28;20041;-87
2022/01/09 02:15:36;;;;;;;0.70;0.70;;;3.70;99.90;;;;;;5058198;28;20056;-87
2022/01/09 02:18:13;;;;;;;1.00;1.00;;;3.70;99.90;;;;;;5054792;28;20060;-87
2022/01/09 02:20:39;;;;;;;0.70;0.70;;;3.70;99.90;;;;;;5068907;28;20037;-87
2022/01/09 02:23:07;;;;;;;0.85;0.85;;;3.70;99.90;;;;;;5060847;28;20047;-87
2022/01/09 02:25:34;;;;;;;0.80;0.80;;;3.70;99.90;;;;;;5061602;28;20119;-87
2022/01/09 02:28:00;;;;;;;0.70;0.70;;;3.80;99.90;;;;;;5075388;28;20100;-86
2022/01/09 02:30:26;;;;;;;0.80;0.80;;;3.80;99.90;;;;;;5063300;28;20081;-87
2022/01/09 02:32:52;;;;;;;0.88;0.88;;;3.80;99.90;;;;;;5070083;28;20037;-86
2022/01/09 02:35:20;;;;;;;0.75;0.75;;;3.80;99.90;;;;;;5058254;28;20064;-87
2022/01/09 02:37:46;;;;;;;0.80;0.80;;;3.70;99.90;;;;;;5060355;28;20041;-86
2022/01/09 02:40:12;;;;;;;0.90;0.90;;;3.80;99.90;;;;;;5058762;28;20052;-86
2022/01/09 02:42:37;;;;;;;0.70;0.70;;;4.00;99.90;;;;;;5060573;28;20051;-87
2022/01/09 02:45:04;;;;;;;0.80;0.80;;;3.90;99.90;;;;;;5086956;28;20044;-87
2022/01/09 02:47:32;;;;;;;1.00;1.00;;;3.80;99.90;;;;;;5070604;28;20061;-86
2022/01/09 02:50:06;;;;;;;0.70;0.70;;;3.80;99.90;;;;;;5064506;28;20144;-86
2022/01/09 02:52:35;;;;;;;0.60;0.60;;;3.80;99.90;;;;;;5083533;28;20060;-86
2022/01/09 02:55:12;;;;;;;0.95;0.95;;;3.80;99.90;;;;;;5065767;28;20101;-85
2022/01/09 02:57:39;;;;;;;0.70;0.70;;;3.80;99.90;;;;;;5063896;28;20207;-86
2022/01/09 03:00:13;;;;;;;0.70;0.70;;;3.90;99.90;;;;;;5079948;28;20104;-86
2022/01/09 03:02:38;;;;;;;0.80;0.80;;;3.90;99.90;;;;;;5059869;28;20064;-86
2022/01/09 03:05:04;;;;;;;0.68;0.68;;;3.90;99.90;;;;;;5067208;28;20064;-86
2022/01/09 03:07:30;;;;;;;0.70;0.70;;;3.90;99.90;;;;;;5083642;28;20086;-86
2022/01/09 03:09:56;;;;;;;0.70;0.70;;;3.90;99.90;;;;;;5085468;28;20090;-85
2022/01/09 03:12:23;;;;;;;0.70;0.70;;;3.90;99.90;;;;;;5061807;28;20041;-86
2022/01/09 03:14:49;;;;;;;0.73;0.73;;;3.90;99.90;;;;;;5064832;28;20043;-87
2022/01/09 03:17:15;;;;;;;0.80;0.80;;;3.90;99.90;;;;;;5069571;28;20041;-86
2022/01/09 03:19:40;;;;;;;0.90;0.80;;;3.90;99.90;;;;;;5077269;28;20045;-86
2022/01/09 03:22:06;;;;;;;2.38;2.15;;;3.90;99.90;;;;;;5067069;28;20123;-86
2022/01/09 03:24:31;;;;;;;0.70;0.70;;;4.00;99.90;;;;;;5065610;28;20090;-86
2022/01/09 03:26:57;;;;;;;0.70;0.70;;;4.00;99.90;;;;;;5066963;28;20054;-86
2022/01/09 03:29:22;;;;;;;1.15;0.88;;;4.10;99.90;;;;;;5060940;28;20045;-86
2022/01/09 03:31:48;;;;;;;1.55;1.10;;;4.10;99.90;;;;;;5080632;28;20104;-87
2022/01/09 03:34:14;;;;;;;1.65;1.55;;;4.20;99.90;;;;;;5061829;28;20047;-86
2022/01/09 03:36:39;;;;;;;5.00;1.85;;;4.20;99.90;;;;;;5076907;28;20048;-87
2022/01/09 03:39:05;;;;;;;0.82;0.82;;;4.30;99.90;;;;;;5063426;28;20036;-86
2022/01/09 03:41:31;;;;;;;1.85;1.70;;;4.30;99.90;;;;;;5075102;28;20425;-87
2022/01/09 03:43:56;;;;;;;0.70;0.70;;;4.40;99.90;;;;;;5066119;28;20132;-86
2022/01/09 03:46:22;;;;;;;0.65;0.65;;;4.40;99.90;;;;;;5055631;28;20037;-86
2022/01/09 03:48:47;;;;;;;1.13;1.13;;;4.40;99.90;;;;;;5078576;28;20424;-86
2022/01/09 03:51:13;;;;;;;0.70;0.70;;;4.50;99.90;;;;;;5064670;28;20048;-86
2022/01/09 03:53:39;;;;;;;0.60;0.60;;;4.50;99.90;;;;;;5056622;28;20112;-87
2022/01/09 03:56:05;;;;;;;0.80;0.80;;;4.50;99.90;;;;;;5067007;28;20037;-86
2022/01/09 03:58:31;;;;;;;0.60;0.60;;;4.60;99.90;;;;;;5075116;28;20052;-86
2022/01/09 04:00:57;;;;;;;0.80;0.80;;;4.60;99.90;;;;;;5073080;28;20041;-87
2022/01/09 04:03:22;;;;;;;0.65;0.65;;;4.60;99.90;;;;;;5061903;28;20068;-87
2022/01/09 04:05:48;;;;;;;0.80;0.80;;;4.70;99.90;;;;;;5059001;28;20558;-87
2022/01/09 04:08:13;;;;;;;0.70;0.70;;;4.70;99.90;;;;;;5062891;28;20060;-86
2022/01/09 04:10:42;;;;;;;0.80;0.80;;;4.80;99.90;;;;;;5076417;28;20060;-87
2022/01/09 04:13:10;;;;;;;1.02;1.02;;;4.90;99.90;;;;;;5080469;28;20045;-86
2022/01/09 04:15:38;;;;;;;0.60;0.60;;;4.90;99.90;;;;;;5060701;28;20112;-87
2022/01/09 04:18:04;;;;;;;1.08;0.90;;;4.90;99.90;;;;;;5072216;28;20416;-86
2022/01/09 04:20:31;;;;;;;1.23;1.05;;;5.00;99.90;;;;;;5060194;28;20037;-85
2022/01/09 04:22:59;;;;;;;0.88;0.88;;;4.90;99.90;;;;;;5073017;28;20044;-87
2022/01/09 04:25:25;;;;;;;1.20;1.20;;;4.90;99.90;;;;;;5057255;28;20045;-86
2022/01/09 04:27:52;;;;;;;0.70;0.70;;;5.00;99.90;;;;;;5061567;28;20096;-87
2022/01/09 04:30:18;;;;;;;1.67;1.58;;;5.00;99.90;;;;;;5062472;28;20135;-86
2022/01/09 04:32:44;;;;;;;0.70;0.70;;;5.00;99.90;;;;;;5060003;28;20033;-86
2022/01/09 04:35:11;;;;;;;0.73;0.73;;;5.00;99.90;;;;;;5078228;28;20044;-85
2022/01/09 04:37:37;;;;;;;0.70;0.70;;;5.00;99.90;;;;;;5079124;28;20036;-86
2022/01/09 04:40:05;;;;;;;3.70;1.70;;;5.00;99.90;;;;;;5078328;28;20053;-87
2022/01/09 04:42:38;;;;;;;0.75;0.75;;;5.00;99.90;;;;;;5059112;28;20082;-86
2022/01/09 04:45:06;;;;;;;0.70;0.70;;;5.00;99.90;;;;;;5056923;28;20044;-86
2022/01/09 04:47:32;;;;;;;0.73;0.73;;;5.00;99.90;;;;;;5074171;28;20083;-86
2022/01/09 04:49:59;;;;;;;0.60;0.60;;;5.10;99.90;;;;;;5062087;28;20044;-88
2022/01/09 04:52:29;;;;;;;1.50;1.40;;;5.00;99.90;;;;;;5061254;28;20036;-87
2022/01/09 04:54:55;;;;;;;0.73;0.73;;;5.00;99.90;;;;;;5056640;28;20064;-87
2022/01/09 04:57:20;;;;;;;1.00;1.00;;;5.00;99.90;;;;;;5078683;28;20055;-87
2022/01/09 04:59:46;;;;;;;0.60;0.60;;;5.00;99.90;;;;;;5054297;28;20108;-86
2022/01/09 05:02:11;;;;;;;0.77;0.77;;;5.00;99.90;;;;;;5067124;28;20099;-87
2022/01/09 05:04:37;;;;;;;0.70;0.70;;;5.00;99.90;;;;;;5051583;28;20048;-86
2022/01/09 05:07:02;;;;;;;0.70;0.70;;;5.00;99.90;;;;;;5056772;28;20141;-86
2022/01/09 05:09:28;;;;;;;0.70;0.70;;;5.00;99.90;;;;;;5073857;28;20059;-86
2022/01/09 05:11:54;;;;;;;0.70;0.70;;;5.00;99.90;;;;;;5073236;28;20033;-86
2022/01/09 05:14:19;;;;;;;1.75;1.27;;;5.00;99.90;;;;;;5085773;28;20052;-85
2022/01/09 05:16:45;;;;;;;0.80;0.80;;;5.00;99.90;;;;;;5063603;28;20045;-86
2022/01/09 05:19:18;;;;;;;1.50;1.42;;;5.00;99.90;;;;;;5064455;28;20052;-87
2022/01/09 05:21:46;;;;;;;0.63;0.63;;;5.00;99.90;;;;;;5052964;28;20037;-86
2022/01/09 05:24:12;;;;;;;0.82;0.82;;;5.00;99.90;;;;;;5060712;28;20144;-86
2022/01/09 05:26:37;;;;;;;0.82;0.82;;;5.00;99.90;;;;;;5050838;28;20039;-87
2022/01/09 05:29:03;;;;;;;2.38;0.85;;;5.00;99.90;;;;;;5057879;28;20063;-86
2022/01/09 05:31:28;;;;;;;0.70;0.70;;;5.00;99.90;;;;;;5049992;28;20130;-86
2022/01/09 05:33:54;;;;;;;0.70;0.70;;;5.00;99.90;;;;;;5075792;28;20044;-87
2022/01/09 05:36:19;;;;;;;0.80;0.80;;;5.00;99.90;;;;;;5072100;28;20136;-86
2022/01/09 05:38:45;;;;;;;1.02;0.90;;;5.00;99.90;;;;;;5057819;28;20144;-87
2022/01/09 05:41:10;;;;;;;1.75;1.23;;;5.00;99.90;;;;;;5062378;28;20059;-87
2022/01/09 05:43:38;;;;;;;0.82;0.82;;;5.00;99.90;;;;;;5058310;28;20075;-87
2022/01/09 05:46:04;;;;;;;1.08;1.05;;;4.90;99.90;;;;;;5060795;28;20036;-87
2022/01/09 05:48:30;;;;;;;0.70;0.70;;;4.80;99.90;;;;;;5072554;28;20052;-86
2022/01/09 05:50:55;;;;;;;0.90;0.90;;;4.80;99.90;;;;;;5071550;28;20045;-86
2022/01/09 05:53:21;;;;;;;3.17;1.70;;;4.90;99.90;;;;;;5060726;28;20051;-87
2022/01/09 05:55:47;;;;;;;0.98;0.98;;;4.90;99.90;;;;;;5053209;28;20100;-86
2022/01/09 05:58:13;;;;;;;3.13;1.33;;;4.90;99.90;;;;;;5057604;28;20068;-87
2022/01/09 06:00:39;;;;;;;0.70;0.70;;;4.90;99.90;;;;;;5065144;28;20039;-87
2022/01/09 06:03:04;;;;;;;1.10;1.00;;;4.90;99.90;;;;;;5070373;28;20062;-87
2022/01/09 06:05:30;;;;;;;0.70;0.70;;;4.80;99.90;;;;;;5058569;28;20144;-86
2022/01/09 06:07:55;;;;;;;0.70;0.70;;;4.80;99.90;;;;;;5059064;28;20071;-86
2022/01/09 06:10:21;;;;;;;0.75;0.75;;;4.80;99.90;;;;;;5060160;28;20428;-86
2022/01/09 06:12:47;;;;;;;1.27;0.85;;;4.80;99.90;;;;;;5054408;28;20044;-87
2022/01/09 06:15:12;;;;;;;1.35;1.25;;;4.80;99.90;;;;;;5054296;28;20044;-86
2022/01/09 06:17:41;;;;;;;0.70;0.70;;;4.80;99.90;;;;;;5059476;28;20074;-86
2022/01/09 06:20:08;;;;;;;0.73;0.73;;;4.80;99.90;;;;;;5068309;28;20055;-84
2022/01/09 06:22:34;;;;;;;1.08;1.08;;;4.70;99.90;;;;;;5063538;28;20037;-85
2022/01/09 06:25:00;;;;;;;0.68;0.68;;;4.80;99.90;;;;;;5054272;28;20071;-85
2022/01/09 06:27:26;;;;;;;0.70;0.70;;;4.80;99.90;;;;;;5059021;28;20029;-85
2022/01/09 06:29:51;;;;;;;1.10;0.90;;;4.80;99.90;;;;;;5063833;28;20097;-85
2022/01/09 06:32:17;;;;;;;0.70;0.70;;;4.80;99.90;;;;;;5054099;28;20112;-85
2022/01/09 06:34:42;;;;;;;0.65;0.65;;;4.80;99.90;;;;;;5065059;28;20048;-86
2022/01/09 06:37:10;;;;;;;2.35;1.77;;;4.80;99.90;;;;;;5073026;28;20052;-85
2022/01/09 06:39:36;;;;;;;0.70;0.70;;;4.70;99.90;;;;;;5073828;28;20045;-85
2022/01/09 06:42:02;;;;;;;4.20;2.45;;;4.70;99.90;;;;;;5078101;28;20105;-85
2022/01/09 06:44:28;;;;;;;0.70;0.70;;;4.70;99.90;;;;;;5059761;28;20048;-86
2022/01/09 06:46:53;;;;;;;0.90;0.90;;;4.80;99.90;;;;;;5068499;28;20373;-86
2022/01/09 06:49:19;;;;;;;0.65;0.65;;;4.80;99.90;;;;;;5059945;28;20068;-86
2022/01/09 06:51:44;;;;;;;0.90;0.90;;;4.80;99.90;;;;;;5064823;28;20083;-86
2022/01/09 06:54:10;;;;;;;0.80;0.80;;;4.70;99.90;;;;;;5063582;28;20040;-85
2022/01/09 06:56:35;;;;;;;3.33;0.93;;;4.80;99.90;;;;;;5058848;28;20143;-86
2022/01/09 06:59:01;;;;;;;0.75;0.75;;;4.80;99.90;;;;;;5051320;28;20045;-86
2022/01/09 07:01:27;;;;;;;0.80;0.80;;;4.70;99.90;;;;;;5067604;28;20060;-86
2022/01/09 07:03:52;;;;;;;1.33;1.23;;;4.70;99.90;;;;;;5072575;28;20068;-86
2022/01/09 07:06:18;;;;;;;0.70;0.70;;;4.70;99.90;;;;;;5065511;28;20045;-85
2022/01/09 07:08:44;;;;;;;0.50;0.50;;;4.70;99.90;;;;;;5081247;28;20032;-86
2022/01/09 07:11:09;;;;;;;0.70;0.70;;;4.70;99.90;;;;;;5045647;28;20132;-85
2022/01/09 07:13:35;;;;;;;3.50;1.83;;;4.80;99.90;;;;;;5072604;28;20037;-84
2022/01/09 07:16:01;;;;;;;4.57;1.05;;;4.80;99.90;;;;;;5077313;28;20036;-86
2022/01/09 07:18:26;;;;;;;0.70;0.70;;;4.80;99.90;;;;;;5060006;28;20049;-85
2022/01/09 07:20:52;;;;;;;0.70;0.70;;;4.80;99.90;;;;;;5061023;28;20152;-85
2022/01/09 07:23:18;;;;;;;0.70;0.70;;;4.70;99.90;;;;;;5056554;28;20385;-86
2022/01/09 07:25:44;;;;;;;0.70;0.70;;;4.70;99.90;;;;;;5068849;28;20037;-85
2022/01/09 07:28:09;;;;;;;0.82;0.82;;;4.80;99.90;;;;;;5063848;28;20048;-86
2022/01/09 07:30:35;;;;;;;0.63;0.63;;;4.70;99.90;;;;;;5059805;28;20037;-85
2022/01/09 07:33:01;;;;;;;0.60;0.60;;;4.70;99.90;;;;;;5063237;28;20045;-86
2022/01/09 07:35:26;;;;;;;0.70;0.70;;;4.80;99.90;;;;;;5075371;28;20071;-84
2022/01/09 07:37:52;;;;;;;0.70;0.70;;;4.80;99.90;;;;;;5079557;28;20127;-86
2022/01/09 07:40:19;;;;;;;0.88;0.88;;;4.80;99.90;;;;;;5061075;28;20536;-85
2022/01/09 07:42:46;;;;;;;0.80;0.80;;;4.70;99.90;;;;;;5076878;28;20045;-85
2022/01/09 07:45:13;;;;;;;0.68;0.68;;;4.70;99.90;;;;;;5061834;28;20040;-86
2022/01/09 07:47:38;;;;;;;0.88;0.88;;;4.70;99.90;;;;;;5058948;28;20183;-86
2022/01/09 07:50:05;;;;;;;0.80;0.80;;;4.70;99.90;;;;;;5062233;28;20041;-87
2022/01/09 07:52:34;;;;;;;1.45;1.00;;;4.60;99.90;;;;;;5061907;28;20036;-87
2022/01/09 07:55:00;;;;;;;1.23;1.13;;;4.50;99.90;;;;;;5061643;28;20045;-87
2022/01/09 07:57:25;;;;;;;0.60;0.60;;;4.50;99.90;;;;;;5060499;28;20041;-87
2022/01/09 07:59:51;;;;;;;2.53;1.88;;;4.50;99.90;;;;;;5065433;28;20124;-87
2022/01/09 08:02:17;;;;;;;0.70;0.70;;;4.50;99.90;;;;;;5065888;28;20108;-86
2022/01/09 08:04:42;;;;;;;0.80;0.80;;;4.40;99.90;;;;;;5075709;28;20040;-86
2022/01/09 08:07:08;;;;;;;0.88;0.88;;;4.40;99.90;;;;;;5065644;28;20113;-87
2022/01/09 08:09:33;;;;;;;1.20;1.10;;;4.50;99.90;;;;;;5080415;28;20041;-87
2022/01/09 08:11:59;;;;;;;0.70;0.70;;;4.50;99.90;;;;;;5062697;28;20104;-87
2022/01/09 08:14:25;;;;;;;0.70;0.70;;;4.50;99.90;;;;;;5074111;28;20041;-87
2022/01/09 08:16:50;;;;;;;2.17;2.08;;;4.50;99.90;;;;;;5056459;28;20037;-88
2022/01/09 08:19:16;;;;;;;0.80;0.80;;;4.50;99.90;;;;;;5056639;28;20041;-87
2022/01/09 08:21:41;;;;;;;0.60;0.60;;;4.50;99.90;;;;;;5070010;28;20033;-87
2022/01/09 08:24:07;;;;;;;0.70;0.70;;;4.50;99.90;;;;;;5081581;28;20093;-88
2022/01/09 08:26:33;;;;;;;0.70;0.70;;;4.60;99.90;;;;;;5058087;28;20071;-87
2022/01/09 08:28:58;;;;;;;0.68;0.68;;;4.50;99.90;;;;;;5061432;28;20045;-88
2022/01/09 08:31:43;;;;;;;0.82;0.82;;;4.50;99.90;;;;;;5067310;28;20064;-88
2022/01/09 08:34:09;;;;;;;1.10;1.00;;;4.50;99.90;;;;;;5081216;28;20037;-86
2022/01/09 08:36:35;;;;;;;0.90;0.90;;;4.50;99.90;;;;;;5055414;28;20052;-86
2022/01/09 08:39:05;;;;;;;0.80;0.80;;;4.80;99.90;;;;;;5056319;28;20045;-87
2022/01/09 08:41:34;;;;;;;0.82;0.80;;;4.40;99.90;;;;;;5059405;28;20033;-87
2022/01/09 08:44:04;;;;;;;13.75;1.02;;;4.40;99.90;;;;;;5067291;28;20036;-87
2022/01/09 08:46:31;;;;;;;0.70;0.70;;;4.40;99.90;;;;;;5068466;28;20102;-87
2022/01/09 08:48:57;;;;;;;0.70;0.70;;;4.40;99.90;;;;;;5053824;28;20040;-86
2022/01/09 08:51:23;;;;;;;1.45;1.35;;;4.40;99.90;;;;;;5048677;28;20464;-87
2022/01/09 08:53:51;;;;;;;0.70;0.70;;;4.40;99.90;;;;;;5047441;28;20044;-87
2022/01/09 08:56:18;;;;;;;0.70;0.70;;;4.50;99.90;;;;;;5061981;28;20185;-86
2022/01/09 08:58:44;;;;;;;0.60;0.60;;;4.50;99.90;;;;;;5067149;28;20119;-87
2022/01/09 09:01:10;;;;;;;1.00;1.00;;;4.50;99.90;;;;;;5052207;28;20059;-87
2022/01/09 09:03:40;;;;;;;0.70;0.70;;;4.50;99.90;;;;;;5063498;28;20048;-86
2022/01/09 09:06:13;;;;;;;0.63;0.63;;;4.60;99.90;;;;;;5047161;28;20672;-84
2022/01/09 09:08:40;;;;;;;1.00;1.00;;;4.60;99.90;;;;;;5066805;28;20048;-87
2022/01/09 09:11:06;;;;;;;0.68;0.68;;;4.60;99.90;;;;;;5072215;28;20064;-88
2022/01/09 09:13:32;;;;;;;0.57;0.57;;;4.60;99.90;;;;;;5050678;28;20041;-87
2022/01/09 09:15:59;;;;;;;17.83;6.25;;;4.70;99.90;;;;;;5064281;28;20041;-87
2022/01/09 09:18:24;;;;;;;0.85;0.85;;;4.70;99.90;;;;;;5052173;28;20048;-87
2022/01/09 09:20:50;;;;;;;0.60;0.60;;;4.60;99.90;;;;;;5050091;28;20073;-86
2022/01/09 09:23:16;;;;;;;0.80;0.80;;;4.60;99.90;;;;;;5060342;28;20036;-86
2022/01/09 09:25:41;;;;;;;0.70;0.70;;;4.60;99.90;;;;;;5049395;28;20128;-86
2022/01/09 09:28:07;;;;;;;0.60;0.60;;;4.70;99.90;;;;;;5060007;28;20516;-86
2022/01/09 09:30:33;;;;;;;0.98;0.93;;;4.70;99.90;;;;;;5064325;28;20799;-87
2022/01/09 09:32:58;;;;;;;0.70;0.70;;;4.70;99.90;;;;;;5056956;28;20096;-86
2022/01/09 09:35:24;;;;;;;0.60;0.60;;;4.70;99.90;;;;;;5080019;28;20056;-87
2022/01/09 09:37:50;;;;;;;0.93;0.93;;;4.60;99.90;;;;;;5057669;28;20071;-87
2022/01/09 09:40:15;;;;;;;0.80;0.80;;;4.70;99.90;;;;;;5065748;28;20112;-87
2022/01/09 09:42:41;;;;;;;1.13;1.02;;;4.70;99.90;;;;;;5060221;28;20033;-87
2022/01/09 09:45:10;;;;;;;0.70;0.70;;;4.60;99.90;;;;;;5074563;28;20473;-86
2022/01/09 09:47:36;;;;;;;0.73;0.73;;;4.60;99.90;;;;;;5064530;28;20080;-86
2022/01/09 09:50:04;;;;;;;0.60;0.60;;;4.70;99.90;;;;;;5077510;28;20036;-86
2022/01/09 09:52:30;;;;;;;1.02;1.02;;;4.60;99.90;;;;;;5075294;28;20072;-87
2022/01/09 09:54:56;;;;;;;0.80;0.80;;;4.60;99.90;;;;;;5074434;28;20052;-87
2022/01/09 09:57:23;;;;;;;1.02;1.00;;;4.70;99.90;;;;;;5067291;28;20648;-86
2022/01/09 09:59:49;;;;;;;11.27;2.75;;;4.70;99.90;;;;;;5066045;28;20246;-85
2022/01/09 10:02:17;;;;;;;0.63;0.63;;;4.70;99.90;;;;;;5071404;28;20017;-86
2022/01/09 10:05:05;;;;;;;0.70;0.70;;;4.80;99.90;;;;;;5087936;28;20021;-87
2022/01/09 10:07:31;;;;;;;0.60;0.60;;;4.80;99.90;;;;;;5065871;28;20067;-87
2022/01/09 10:09:58;;;;;;;0.70;0.70;;;4.80;99.90;;;;;;5087698;28;20052;-87
2022/01/09 10:12:33;;;;;;;0.60;0.60;;;4.90;99.90;;;;;;5066781;28;20084;-87
2022/01/09 10:15:03;;;;;;;0.70;0.70;;;4.80;99.90;;;;;;5070531;28;20025;-87
2022/01/09 10:17:30;;;;;;;0.70;0.70;;;4.90;99.90;;;;;;5064500;28;20424;-87
2022/01/09 10:20:13;;;;;;;0.80;0.80;;;4.90;99.90;;;;;;5071815;28;20049;-87
2022/01/09 10:22:44;;;;;;;0.80;0.80;;;4.90;99.90;;;;;;5044951;28;20504;-86
2022/01/09 10:25:18;;;;;;;0.80;0.80;;;4.80;99.90;;;;;;5066420;28;20048;-87
2022/01/09 10:27:44;;;;;;;1.27;1.17;;;4.90;99.90;;;;;;5059017;28;20041;-86
2022/01/09 10:30:10;;;;;;;0.77;0.77;;;4.90;99.90;;;;;;5080775;28;20166;-88
2022/01/09 10:32:36;;;;;;;0.80;0.80;;;4.90;99.90;;;;;;5080013;28;20049;-87
2022/01/09 10:35:15;;;;;;;0.70;0.70;;;4.90;99.90;;;;;;5057781;28;20044;-86
2022/01/09 10:37:43;;;;;;;0.60;0.60;;;4.90;99.90;;;;;;5084699;28;20056;-90
2022/01/09 10:40:20;;;;;;;0.70;0.70;;;4.90;99.90;;;;;;5062627;28;20059;-88
2022/01/09 10:43:08;;;;;;;0.70;0.70;;;4.90;99.90;;;;;;5061097;28;20258;-88
2022/01/09 10:45:38;;;;;;;0.70;0.70;;;4.90;99.90;;;;;;5055757;28;20032;-87
2022/01/09 10:48:09;;;;;;;1.35;1.02;;;5.10;99.90;;;;;;5052203;28;20562;-87
2022/01/09 10:50:39;;;;;;;0.70;0.70;;;4.80;99.90;;;;;;5052032;28;20082;-85
2022/01/09 10:53:21;;;;;;;3.03;2.15;;;4.90;99.90;;;;;;5083578;28;20051;-87
2022/01/09 10:56:13;;;;;;;0.70;0.70;;;4.80;99.90;;;;;;5052858;28;20049;-86
2022/01/09 10:58:44;;;;;;;3.83;2.45;;;5.00;99.90;;;;;;5054553;28;20052;-85
2022/01/09 11:01:33;;;;;;;0.60;0.60;;;5.00;99.90;;;;;;5065848;28;20151;-86
2022/01/09 11:04:01;;;;;;;0.70;0.70;;;5.10;99.90;;;;;;5058356;28;20040;-87
2022/01/09 11:06:31;;;;;;;1.75;1.60;;;5.10;99.90;;;;;;5055842;28;20040;-87
2022/01/09 11:08:58;;;;;;;0.70;0.70;;;5.10;99.90;;;;;;5072797;28;20060;-87
2022/01/09 11:11:29;;;;;;;0.70;0.70;;;5.10;99.90;;;;;;5051717;28;20096;-87
2022/01/09 11:13:57;;;;;;;11.23;1.30;;;5.20;99.90;;;;;;5072906;28;20037;-86
2022/01/09 11:16:34;;;;;;;0.60;0.60;;;5.30;99.90;;;;;;5054100;28;20041;-86
2022/01/09 11:19:02;;;;;;;0.60;0.60;;;5.30;99.90;;;;;;5070318;28;20732;-87
2022/01/09 11:21:28;;;;;;;0.65;0.65;;;5.40;99.90;;;;;;5052151;28;20046;-87
2022/01/09 11:24:32;;;;;;;1.60;1.50;;;5.30;99.90;;;;;;5051726;28;20147;-86
2022/01/09 11:27:24;;;;;;;0.88;0.85;;;5.40;99.90;;;;;;5071939;28;20115;-86
2022/01/09 11:30:05;;;;;;;0.70;0.70;;;5.50;99.90;;;;;;5078572;28;20044;-88
2022/01/09 11:32:57;;;;;;;0.70;0.70;;;5.60;99.90;;;;;;5069122;28;20792;-86
2022/01/09 11:35:38;;;;;;;0.80;0.80;;;5.60;99.90;;;;;;5069238;28;20113;-87
2022/01/09 11:38:18;;;;;;;0.70;0.70;;;5.40;99.90;;;;;;5058041;28;20402;-88
2022/01/09 11:40:44;;;;;;;14.02;1.42;;;5.70;99.90;;;;;;5058615;28;20048;-87
2022/01/09 11:43:15;;;;;;;1.00;1.00;;;5.70;99.90;;;;;;5060560;28;20065;-87
2022/01/09 11:45:51;;;;;;;0.75;0.75;;;5.80;99.90;;;;;;5071179;28;20140;-86
2022/01/09 11:48:35;;;;;;;0.60;0.60;;;5.80;99.90;;;;;;5076041;28;20108;-86
2022/01/09 11:51:06;;;;;;;0.70;0.70;;;5.90;99.90;;;;;;5043614;28;20111;-86
2022/01/09 11:54:18;;;;;;;0.73;0.73;;;6.00;99.90;;;;;;5054595;28;20083;-86
2022/01/09 11:57:01;;;;;;;0.68;0.68;;;6.20;99.90;;;;;;5054682;28;20075;-87
2022/01/09 11:59:48;;;;;;;0.70;0.70;;;6.30;99.90;;;;;;5055761;28;20048;-87
2022/01/09 12:02:16;;;;;;;0.85;0.85;;;6.50;99.90;;;;;;5066371;28;20045;-87
2022/01/09 12:04:42;;;;;;;10.52;1.17;;;6.50;99.90;;;;;;5054529;28;20119;-87
2022/01/09 12:07:13;;;;;;;2.70;1.55;;;6.60;99.90;;;;;;5053634;28;20079;-87
2022/01/09 12:09:48;;;;;;;0.80;0.80;;;6.70;99.90;;;;;;5055529;28;20049;-87
2022/01/09 12:12:19;;;;;;;0.70;0.70;;;6.70;99.90;;;;;;5060602;28;20041;-89
2022/01/09 12:15:01;;;;;;;2.67;1.35;;;6.70;99.90;;;;;;5058516;28;20036;-87
2022/01/09 12:17:41;;;;;;;0.60;0.60;;;6.80;99.90;;;;;;5048958;28;20037;-86
2022/01/09 12:20:31;;;;;;;1.08;0.95;;;6.80;99.90;;;;;;5051570;28;20036;-87
2022/01/09 12:23:04;;;;;;;0.65;0.65;;;6.90;99.90;;;;;;5050064;28;20037;-86
2022/01/09 12:25:36;;;;;;;0.60;0.60;;;7.00;99.90;;;;;;5062312;28;20499;-87
2022/01/09 12:28:18;;;;;;;0.60;0.60;;;7.00;99.90;;;;;;5056298;28;20097;-87
2022/01/09 12:31:00;;;;;;;0.70;0.70;;;7.10;99.90;;;;;;5055125;28;20057;-87
2022/01/09 12:33:27;;;;;;;0.73;0.73;;;7.20;99.90;;;;;;5080086;28;20041;-86
2022/01/09 12:35:58;;;;;;;1.20;1.13;;;7.10;99.90;;;;;;5053037;28;20113;-87
2022/01/09 12:38:29;;;;;;;0.77;0.77;;;7.20;99.90;;;;;;5055131;28;20071;-87
2022/01/09 12:40:56;;;;;;;0.60;0.60;;;7.30;99.90;;;;;;5056458;28;20104;-86
2022/01/09 12:43:23;;;;;;;0.60;0.60;;;7.30;99.90;;;;;;5055476;28;20041;-87
2022/01/09 12:45:49;;;;;;;0.60;0.60;;;7.20;99.90;;;;;;5054646;28;20131;-87
2022/01/09 12:48:21;;;;;;;0.65;0.65;;;7.00;99.90;;;;;;5068118;28;20040;-86
2022/01/09 12:50:49;;;;;;;1.13;0.88;;;6.90;99.90;;;;;;5046902;28;20132;-87
2022/01/09 12:53:16;;;;;;;0.70;0.70;;;6.80;99.90;;;;;;5051239;28;20033;-85
2022/01/09 12:56:05;;;;;;;0.60;0.60;;;6.60;99.90;;;;;;5073153;28;20068;-87
2022/01/09 12:58:53;;;;;;;0.63;0.63;;;6.50;99.90;;;;;;5056307;28;20567;-88
2022/01/09 13:01:22;;;;;;;0.93;0.93;;;6.50;99.90;;;;;;5066112;28;20049;-91
2022/01/09 13:03:52;;;;;;;1.58;1.15;;;6.50;99.90;;;;;;5056016;28;20056;-90